Terminal Aerodrome Forecast
Issued by NWS

Home | Current Version | Previous Version | Text Only | Print | Product List | Glossary On
Versions: 1 2 3 4 5 6 7 8 9 10 11 12 13 14
000
FTUS43 KFGF 212338
TAFDVL
TAF
KDVL 212338Z 2200/2224 27013KT P6SM VCSH BKN090
     FM220300 27015KT P6SM BKN035
     FM220800 27012KT P6SM SCT140
     FM221800 21014KT P6SM BKN200=

USA.gov is the U.S. government's official web portal to all federal, state and local government web resources and services.